Spruce Express — VRBZ4 — position and weather

sailwx.info

Track history (hours):
 
Tides and Currents Weather Stations Pressure Air Temp Water Temp Dewpoint Dewpoint Depression Visibility Wind Speed Wind Dir Waves Ship Positions

Spruce Express

Last reported at 2017-Nov-10 15:02 UTC. Time now 2017-Nov-21 10:21 UTC.
Position N 24°47' W 016°50'.
Warning: this ship's position is 10 days out of date.

Length 183 m; draft 10.4 m.

Type: Tanker. MMSI: 477241300.

Date/timePositionNaut miles runAvg speedWind from/ knotsBaromVisibWave heightAir tempDewpointWater temp
2017-Nov-10 15:02N 24°47' W 016°50'19513.0
2017-Nov-10 00:06N 27°41' W 015°12'113.6
2017-Nov-10 00:00N 27°42' W 015°12'713.3
2017-Nov-09 23:30N 27°48' W 015°09'713.1
2017-Nov-09 23:00N 27°54' W 015°06'612.7
2017-Nov-09 22:30N 28°00' W 015°03'612.7
2017-Nov-09 22:00N 28°06' W 015°01'612.8
2017-Nov-09 21:30N 28°12' W 014°58'712.8
2017-Nov-09 21:00N 28°18' W 014°56'713.0
2017-Nov-09 20:28N 28°25' W 014°53'613.1
2017-Nov-09 20:00N 28°31' W 014°52'713.1
2017-Nov-09 19:30N 28°37' W 014°50'813.0
2017-Nov-09 18:54N 28°44' W 014°47'1812.7
2017-Nov-09 17:27N 29°02' W 014°42'  
2017-Nov-05 03:42N 49°51' W 003°20'212.3
2017-Nov-05 03:30N 49°53' W 003°17'913.2
2017-Nov-05 02:50N 49°57' W 003°05'514.0
2017-Nov-05 02:30N 49°58' W 002°58'1114.8
2017-Nov-05 01:48N 50°01' W 002°42'615.4
2017-Nov-05 01:24N 50°03' W 002°33'2914.7
2017-Nov-04 23:26N 50°10' W 001°49'612.7
2017-Nov-04 22:58N 50°11' W 001°41'511.6
2017-Nov-04 22:30N 50°13' W 001°33'5310.1
2017-Nov-04 17:13N 50°27' W 000°12'313.2
2017-Nov-04 17:00N 50°28' W 000°08'713.5
2017-Nov-04 16:30N 50°30' E 000°03'714.0
2017-Nov-04 16:00N 50°32' E 000°13'714.2
2017-Nov-04 15:30N 50°33' E 000°24'713.9
2017-Nov-04 15:00N 50°35' E 000°35'713.5
2017-Nov-04 14:30N 50°39' E 000°44'713.0
2017-Nov-04 14:00N 50°43' E 000°52'612.1
2017-Nov-04 13:30N 50°46' E 000°60'22 9.9
2017-Nov-04 11:14N 51°01' E 001°27'2 9.5
2017-Nov-04 11:00N 51°02' E 001°29'5 9.9
2017-Nov-04 10:31N 51°06' E 001°35'510.5
2017-Nov-04 10:00N 51°10' E 001°40'611.9
2017-Nov-04 09:30N 51°14' E 001°47'713.5
2017-Nov-04 09:00N 51°20' E 001°52'714.4
2017-Nov-04 08:31N 51°26' E 001°57'714.4
2017-Nov-04 08:00N 51°32' E 002°05'714.8
2017-Nov-04 07:30N 51°38' E 002°13'914.4
2017-Nov-04 06:51N 51°45' E 002°23'4412.2
2017-Nov-04 03:13N 52°19' E 003°08'310.8
2017-Nov-04 02:59N 52°21' E 003°11'510.6
2017-Nov-04 02:30N 52°25' E 003°16'510.5
2017-Nov-04 02:00N 52°28' E 003°23'2210.9
2017-Nov-03 23:59N 52°31' E 003°59'612.3
2017-Nov-03 23:29N 52°31' E 004°08'612.4
2017-Nov-03 23:00N 52°30' E 004°18'510.9
2017-Nov-03 22:30N 52°29' E 004°27'5 9.3
2017-Nov-03 22:00N 52°28' E 004°34'1 2.6
2017-Nov-03 21:30N 52°28' E 004°37'2 4.1
2017-Nov-03 21:00N 52°28' E 004°40'4 7.3
2017-Nov-03 20:30N 52°26' E 004°45'3 6.2
2017-Nov-03 20:01N 52°25' E 004°50'0 0.8
2017-Nov-03 19:28N 52°25' E 004°50'0 0.0
2017-Nov-03 18:43N 52°25' E 004°50'0 0.0
2017-Nov-03 18:25N 52°25' E 004°50'0 0.0
2017-Nov-03 17:58N 52°25' E 004°50'0 0.0
2017-Nov-03 16:49N 52°25' E 004°50'0 0.0
2017-Nov-03 16:28N 52°25' E 004°50'0 0.0
2017-Nov-03 15:58N 52°25' E 004°50'0 0.0
2017-Nov-03 15:16N 52°25' E 004°50'0 0.0
2017-Nov-03 14:55N 52°25' E 004°50'0 0.0
2017-Nov-03 14:28N 52°25' E 004°50'0 0.0
2017-Nov-03 13:22N 52°25' E 004°50'0 0.0
2017-Nov-03 12:46N 52°25' E 004°50'0 0.0
2017-Nov-03 12:28N 52°25' E 004°50'0 0.0
2017-Nov-03 11:58N 52°25' E 004°50'0 0.0
2017-Nov-03 11:19N 52°25' E 004°50'0 0.0
2017-Nov-03 10:58N 52°25' E 004°50'0 0.0
2017-Nov-03 10:19N 52°25' E 004°50'0 0.0
2017-Nov-03 09:55N 52°25' E 004°50'0 0.0
2017-Nov-03 09:28N 52°25' E 004°50'0 0.0
2017-Nov-03 08:58N 52°25' E 004°50'0 0.0
2017-Nov-03 08:28N 52°25' E 004°50'0 0.0
2017-Nov-03 07:52N 52°25' E 004°50'0 0.0
2017-Nov-03 07:28N 52°25' E 004°50'0 0.0
2017-Nov-03 06:46N 52°25' E 004°50'0 0.0
2017-Nov-03 06:28N 52°25' E 004°50'0 0.0
2017-Nov-03 05:52N 52°25' E 004°50'0 0.0
2017-Nov-03 05:28N 52°25' E 004°50'0 0.0
2017-Nov-03 04:58N 52°25' E 004°50'0 0.0
2017-Nov-03 04:19N 52°25' E 004°50'0 0.0
2017-Nov-03 03:58N 52°25' E 004°50'0 0.0
2017-Nov-03 03:22N 52°25' E 004°50'0 0.0
2017-Nov-03 02:55N 52°25' E 004°50'0 0.0
2017-Nov-03 02:28N 52°25' E 004°50'0 0.0
2017-Nov-03 01:58N 52°25' E 004°50'0 0.0
2017-Nov-03 01:28N 52°25' E 004°50'0 0.0
2017-Nov-03 00:58N 52°25' E 004°50'0 0.0
2017-Nov-03 00:28N 52°25' E 004°50'0 0.0
2017-Nov-02 23:58N 52°25' E 004°50'0 0.0
2017-Nov-02 23:28N 52°25' E 004°50'0 0.0
2017-Nov-02 22:58N 52°25' E 004°50'0 0.0
2017-Nov-02 22:28N 52°25' E 004°50'0 0.0
2017-Nov-02 21:58N 52°25' E 004°50'0 0.0
2017-Nov-02 21:28N 52°25' E 004°50'0 0.0
2017-Nov-02 20:55N 52°25' E 004°50'0 0.0
2017-Nov-02 20:28N 52°25' E 004°50'0 0.0
2017-Nov-02 19:58N 52°25' E 004°50'0 0.0
2017-Nov-02 18:58N 52°25' E 004°50'0 0.0
2017-Nov-02 18:28N 52°25' E 004°50'0 0.0
2017-Nov-02 17:58N 52°25' E 004°50'0 0.0
2017-Nov-02 17:28N 52°25' E 004°50'0 0.0
2017-Nov-02 16:55N 52°25' E 004°50'0 0.0
2017-Nov-02 16:25N 52°25' E 004°50'0 0.0
2017-Nov-02 15:52N 52°25' E 004°50'0 0.0
2017-Nov-02 15:28N 52°25' E 004°50'0 0.0
2017-Nov-02 14:58N 52°25' E 004°50'0 0.0
2017-Nov-02 14:28N 52°25' E 004°50'0 0.0
2017-Nov-02 13:58N 52°25' E 004°50'0 0.0
2017-Nov-02 13:22N 52°25' E 004°50'0 0.0
2017-Nov-02 12:58N 52°25' E 004°50'0 0.0
2017-Nov-02 12:28N 52°25' E 004°50'0 0.0
2017-Nov-02 11:58N 52°25' E 004°50'0 0.0
2017-Nov-02 11:28N 52°25' E 004°50'0 0.0
2017-Nov-02 10:52N 52°25' E 004°50'0 0.0
2017-Nov-02 10:28N 52°25' E 004°50'0 0.0
2017-Nov-02 09:58N 52°25' E 004°50'0 0.0
2017-Nov-02 09:22N 52°25' E 004°50'0 0.0
2017-Nov-02 08:52N 52°25' E 004°50'0 0.0
2017-Nov-02 08:25N 52°25' E 004°50'0 0.0
2017-Nov-02 07:55N 52°25' E 004°50'0 0.0
2017-Nov-02 07:28N 52°25' E 004°50'0 0.0
2017-Nov-02 06:58N 52°25' E 004°50'0 0.0
2017-Nov-02 06:22N 52°25' E 004°50'0 0.0
2017-Nov-02 05:55N 52°25' E 004°50'0 0.0
2017-Nov-02 05:25N 52°25' E 004°50'0 0.0
2017-Nov-02 04:58N 52°25' E 004°50'0 0.0
2017-Nov-02 04:28N 52°25' E 004°50'0 0.0
2017-Nov-02 03:58N 52°25' E 004°50'0 0.0
2017-Nov-02 03:22N 52°25' E 004°50'0 0.0
2017-Nov-02 02:58N 52°25' E 004°50'0 0.0
2017-Nov-02 02:28N 52°25' E 004°50'0 0.0
2017-Nov-02 01:58N 52°25' E 004°50'0 0.0
2017-Nov-02 01:28N 52°25' E 004°50'0 0.0
2017-Nov-02 00:58N 52°25' E 004°50'0 0.0
2017-Nov-02 00:25N 52°25' E 004°50'0 0.0
2017-Nov-01 23:58N 52°25' E 004°50'0 0.0
2017-Nov-01 23:28N 52°25' E 004°50'0 0.0
2017-Nov-01 22:55N 52°25' E 004°50'0 0.0
2017-Nov-01 22:28N 52°25' E 004°50'0 0.0
2017-Nov-01 21:58N 52°25' E 004°50'0 0.0
2017-Nov-01 21:25N 52°25' E 004°50'0 0.0
2017-Nov-01 20:58N 52°25' E 004°50'0 0.0
2017-Nov-01 20:28N 52°25' E 004°50'0 0.0
2017-Nov-01 19:46N 52°25' E 004°50'0 0.0
2017-Nov-01 19:28N 52°25' E 004°50'0 0.0
2017-Nov-01 18:58N 52°25' E 004°50'0 0.0
2017-Nov-01 18:25N 52°25' E 004°50'30 1.8
2017-Nov-01 02:01N 52°27' E 004°01'0 0.7
2017-Nov-01 01:30N 52°27' E 004°01'0 0.0
2017-Nov-01 00:54N 52°27' E 004°01'0 0.0
2017-Nov-01 00:27N 52°27' E 004°01'0 0.0
2017-Nov-01 00:00N 52°27' E 004°01'0 0.0
2017-Oct-31 23:27N 52°27' E 004°01'0 0.0
2017-Oct-31 21:21N 52°27' E 004°01'0 0.0
2017-Oct-31 21:00N 52°27' E 004°01'0 0.0
2017-Oct-31 20:24N 52°27' E 004°01'0 0.0
2017-Oct-31 19:57N 52°27' E 004°01'0 0.0
2017-Oct-31 19:30N 52°27' E 004°01'0 0.0
2017-Oct-31 18:48N 52°27' E 004°01'  
Track history (hours):
 
Tides and Currents Weather Stations Pressure Air Temp Water Temp Dewpoint Dewpoint Depression Visibility Wind Speed Wind Dir Waves Ship Positions

Spruce Express

Last reported at 2017-Nov-10 15:02 UTC. Time now 2017-Nov-21 10:21 UTC.
Position N 24°47' W 016°50'.
Warning: this ship's position is 10 days out of date.

Length 183 m; draft 10.4 m.

Type: Tanker. MMSI: 477241300.

Date/timePositionNaut miles runAvg speedWind from/ knotsBaromVisibWave heightAir tempDewpointWater temp
2017-Nov-10 15:02N 24°47' W 016°50'19513.0
2017-Nov-10 00:06N 27°41' W 015°12'113.6
2017-Nov-10 00:00N 27°42' W 015°12'713.3
2017-Nov-09 23:30N 27°48' W 015°09'713.1
2017-Nov-09 23:00N 27°54' W 015°06'612.7
2017-Nov-09 22:30N 28°00' W 015°03'612.7
2017-Nov-09 22:00N 28°06' W 015°01'612.8
2017-Nov-09 21:30N 28°12' W 014°58'712.8
2017-Nov-09 21:00N 28°18' W 014°56'713.0
2017-Nov-09 20:28N 28°25' W 014°53'613.1
2017-Nov-09 20:00N 28°31' W 014°52'713.1
2017-Nov-09 19:30N 28°37' W 014°50'813.0
2017-Nov-09 18:54N 28°44' W 014°47'1812.7
2017-Nov-09 17:27N 29°02' W 014°42'  
2017-Nov-05 03:42N 49°51' W 003°20'212.3
2017-Nov-05 03:30N 49°53' W 003°17'913.2
2017-Nov-05 02:50N 49°57' W 003°05'514.0
2017-Nov-05 02:30N 49°58' W 002°58'1114.8
2017-Nov-05 01:48N 50°01' W 002°42'615.4
2017-Nov-05 01:24N 50°03' W 002°33'2914.7
2017-Nov-04 23:26N 50°10' W 001°49'612.7
2017-Nov-04 22:58N 50°11' W 001°41'511.6
2017-Nov-04 22:30N 50°13' W 001°33'5310.1
2017-Nov-04 17:13N 50°27' W 000°12'313.2
2017-Nov-04 17:00N 50°28' W 000°08'713.5
2017-Nov-04 16:30N 50°30' E 000°03'714.0
2017-Nov-04 16:00N 50°32' E 000°13'714.2
2017-Nov-04 15:30N 50°33' E 000°24'713.9
2017-Nov-04 15:00N 50°35' E 000°35'713.5
2017-Nov-04 14:30N 50°39' E 000°44'713.0
2017-Nov-04 14:00N 50°43' E 000°52'612.1
2017-Nov-04 13:30N 50°46' E 000°60'22 9.9
2017-Nov-04 11:14N 51°01' E 001°27'2 9.5
2017-Nov-04 11:00N 51°02' E 001°29'5 9.9
2017-Nov-04 10:31N 51°06' E 001°35'510.5
2017-Nov-04 10:00N 51°10' E 001°40'611.9
2017-Nov-04 09:30N 51°14' E 001°47'713.5
2017-Nov-04 09:00N 51°20' E 001°52'714.4
2017-Nov-04 08:31N 51°26' E 001°57'714.4
2017-Nov-04 08:00N 51°32' E 002°05'714.8
2017-Nov-04 07:30N 51°38' E 002°13'914.4
2017-Nov-04 06:51N 51°45' E 002°23'4412.2
2017-Nov-04 03:13N 52°19' E 003°08'310.8
2017-Nov-04 02:59N 52°21' E 003°11'510.6
2017-Nov-04 02:30N 52°25' E 003°16'510.5
2017-Nov-04 02:00N 52°28' E 003°23'2210.9
2017-Nov-03 23:59N 52°31' E 003°59'612.3
2017-Nov-03 23:29N 52°31' E 004°08'612.4
2017-Nov-03 23:00N 52°30' E 004°18'510.9
2017-Nov-03 22:30N 52°29' E 004°27'5 9.3
2017-Nov-03 22:00N 52°28' E 004°34'1 2.6
2017-Nov-03 21:30N 52°28' E 004°37'2 4.1
2017-Nov-03 21:00N 52°28' E 004°40'4 7.3
2017-Nov-03 20:30N 52°26' E 004°45'3 6.2
2017-Nov-03 20:01N 52°25' E 004°50'0 0.8
2017-Nov-03 19:28N 52°25' E 004°50'0 0.0
2017-Nov-03 18:43N 52°25' E 004°50'0 0.0
2017-Nov-03 18:25N 52°25' E 004°50'0 0.0
2017-Nov-03 17:58N 52°25' E 004°50'0 0.0
2017-Nov-03 16:49N 52°25' E 004°50'0 0.0
2017-Nov-03 16:28N 52°25' E 004°50'0 0.0
2017-Nov-03 15:58N 52°25' E 004°50'0 0.0
2017-Nov-03 15:16N 52°25' E 004°50'0 0.0
2017-Nov-03 14:55N 52°25' E 004°50'0 0.0
2017-Nov-03 14:28N 52°25' E 004°50'0 0.0
2017-Nov-03 13:22N 52°25' E 004°50'0 0.0
2017-Nov-03 12:46N 52°25' E 004°50'0 0.0
2017-Nov-03 12:28N 52°25' E 004°50'0 0.0
2017-Nov-03 11:58N 52°25' E 004°50'0 0.0
2017-Nov-03 11:19N 52°25' E 004°50'0 0.0
2017-Nov-03 10:58N 52°25' E 004°50'0 0.0
2017-Nov-03 10:19N 52°25' E 004°50'0 0.0
2017-Nov-03 09:55N 52°25' E 004°50'0 0.0
2017-Nov-03 09:28N 52°25' E 004°50'0 0.0
2017-Nov-03 08:58N 52°25' E 004°50'0 0.0
2017-Nov-03 08:28N 52°25' E 004°50'0 0.0
2017-Nov-03 07:52N 52°25' E 004°50'0 0.0
2017-Nov-03 07:28N 52°25' E 004°50'0 0.0
2017-Nov-03 06:46N 52°25' E 004°50'0 0.0
2017-Nov-03 06:28N 52°25' E 004°50'0 0.0
2017-Nov-03 05:52N 52°25' E 004°50'0 0.0
2017-Nov-03 05:28N 52°25' E 004°50'0 0.0
2017-Nov-03 04:58N 52°25' E 004°50'0 0.0
2017-Nov-03 04:19N 52°25' E 004°50'0 0.0
2017-Nov-03 03:58N 52°25' E 004°50'0 0.0
2017-Nov-03 03:22N 52°25' E 004°50'0 0.0
2017-Nov-03 02:55N 52°25' E 004°50'0 0.0
2017-Nov-03 02:28N 52°25' E 004°50'0 0.0
2017-Nov-03 01:58N 52°25' E 004°50'0 0.0
2017-Nov-03 01:28N 52°25' E 004°50'0 0.0
2017-Nov-03 00:58N 52°25' E 004°50'0 0.0
2017-Nov-03 00:28N 52°25' E 004°50'0 0.0
2017-Nov-02 23:58N 52°25' E 004°50'0 0.0
2017-Nov-02 23:28N 52°25' E 004°50'0 0.0
2017-Nov-02 22:58N 52°25' E 004°50'0 0.0
2017-Nov-02 22:28N 52°25' E 004°50'0 0.0
2017-Nov-02 21:58N 52°25' E 004°50'0 0.0
2017-Nov-02 21:28N 52°25' E 004°50'0 0.0
2017-Nov-02 20:55N 52°25' E 004°50'0 0.0
2017-Nov-02 20:28N 52°25' E 004°50'0 0.0
2017-Nov-02 19:58N 52°25' E 004°50'0 0.0
2017-Nov-02 18:58N 52°25' E 004°50'0 0.0
2017-Nov-02 18:28N 52°25' E 004°50'0 0.0
2017-Nov-02 17:58N 52°25' E 004°50'0 0.0
2017-Nov-02 17:28N 52°25' E 004°50'0 0.0
2017-Nov-02 16:55N 52°25' E 004°50'0 0.0
2017-Nov-02 16:25N 52°25' E 004°50'0 0.0
2017-Nov-02 15:52N 52°25' E 004°50'0 0.0
2017-Nov-02 15:28N 52°25' E 004°50'0 0.0
2017-Nov-02 14:58N 52°25' E 004°50'0 0.0
2017-Nov-02 14:28N 52°25' E 004°50'0 0.0
2017-Nov-02 13:58N 52°25' E 004°50'0 0.0
2017-Nov-02 13:22N 52°25' E 004°50'0 0.0
2017-Nov-02 12:58N 52°25' E 004°50'0 0.0
2017-Nov-02 12:28N 52°25' E 004°50'0 0.0
2017-Nov-02 11:58N 52°25' E 004°50'0 0.0
2017-Nov-02 11:28N 52°25' E 004°50'0 0.0
2017-Nov-02 10:52N 52°25' E 004°50'0 0.0
2017-Nov-02 10:28N 52°25' E 004°50'0 0.0
2017-Nov-02 09:58N 52°25' E 004°50'0 0.0
2017-Nov-02 09:22N 52°25' E 004°50'0 0.0
2017-Nov-02 08:52N 52°25' E 004°50'0 0.0
2017-Nov-02 08:25N 52°25' E 004°50'0 0.0
2017-Nov-02 07:55N 52°25' E 004°50'0 0.0
2017-Nov-02 07:28N 52°25' E 004°50'0 0.0
2017-Nov-02 06:58N 52°25' E 004°50'0 0.0
2017-Nov-02 06:22N 52°25' E 004°50'0 0.0
2017-Nov-02 05:55N 52°25' E 004°50'0 0.0
2017-Nov-02 05:25N 52°25' E 004°50'0 0.0
2017-Nov-02 04:58N 52°25' E 004°50'0 0.0
2017-Nov-02 04:28N 52°25' E 004°50'0 0.0
2017-Nov-02 03:58N 52°25' E 004°50'0 0.0
2017-Nov-02 03:22N 52°25' E 004°50'0 0.0
2017-Nov-02 02:58N 52°25' E 004°50'0 0.0
2017-Nov-02 02:28N 52°25' E 004°50'0 0.0
2017-Nov-02 01:58N 52°25' E 004°50'0 0.0
2017-Nov-02 01:28N 52°25' E 004°50'0 0.0
2017-Nov-02 00:58N 52°25' E 004°50'0 0.0
2017-Nov-02 00:25N 52°25' E 004°50'0 0.0
2017-Nov-01 23:58N 52°25' E 004°50'0 0.0
2017-Nov-01 23:28N 52°25' E 004°50'0 0.0
2017-Nov-01 22:55N 52°25' E 004°50'0 0.0
2017-Nov-01 22:28N 52°25' E 004°50'0 0.0
2017-Nov-01 21:58N 52°25' E 004°50'0 0.0
2017-Nov-01 21:25N 52°25' E 004°50'0 0.0
2017-Nov-01 20:58N 52°25' E 004°50'0 0.0
2017-Nov-01 20:28N 52°25' E 004°50'0 0.0
2017-Nov-01 19:46N 52°25' E 004°50'0 0.0
2017-Nov-01 19:28N 52°25' E 004°50'0 0.0
2017-Nov-01 18:58N 52°25' E 004°50'0 0.0
2017-Nov-01 18:25N 52°25' E 004°50'30 1.8
2017-Nov-01 02:01N 52°27' E 004°01'0 0.7
2017-Nov-01 01:30N 52°27' E 004°01'0 0.0
2017-Nov-01 00:54N 52°27' E 004°01'0 0.0
2017-Nov-01 00:27N 52°27' E 004°01'0 0.0
2017-Nov-01 00:00N 52°27' E 004°01'0 0.0
2017-Oct-31 23:27N 52°27' E 004°01'0 0.0
2017-Oct-31 21:21N 52°27' E 004°01'0 0.0
2017-Oct-31 21:00N 52°27' E 004°01'0 0.0
2017-Oct-31 20:24N 52°27' E 004°01'0 0.0
2017-Oct-31 19:57N 52°27' E 004°01'0 0.0
2017-Oct-31 19:30N 52°27' E 004°01'0 0.0
2017-Oct-31 18:48N 52°27' E 004°01'  

Dump ship's entire track history